Huntingburg, IN

12:38 AM EDT on October 24, 2017 (GMT -0400)
Huntingburg

Weather History for KHNB - January, 2014

Change the Weather History Date:

Friday, January 3, 2014

  Actual Average Record
Temperature  
Mean Temperature 16 °F -  
Max Temperature 24 °F 39 °F 66 °F (1997)
Min Temperature 8 °F 26 °F 0 °F (2001)
Degree Days  
Heating Degree Days 49    
Moisture  
Dew Point 9 °F    
Average Humidity 72    
Maximum Humidity 92    
Minimum Humidity 54    
Precipitation  
Precipitation 0.00 in - - ()
Sea Level Pressure  
Sea Level Pressure 30.41 in    
Wind  
Wind Speed 7 mph (South)    
Max Wind Speed 14 mph    
Max Gust Speed 20 mph    
Visibility 10 miles    
Events      
Averages and records for this station are not official NWS values.
T = Trace of Precipitation, MM = Missing Value Source: NWS Daily Summary

Daily Weather History Graph

Daily Weather History Graph

Search for Another Location

Airport or City:

Trip Planner

Search our weather history database for the weather conditions in past years. The results will help you decide how hot, cold, wet, or windy it might be!

Date:

Astronomy

Jan. 03, 2014 Rise Set
Actual Time 8:04 AM EST 5:40 PM EST
Civil Twilight 7:35 AM EST 6:09 PM EST
Nautical Twilight 7:02 AM EST 6:42 PM EST
Astronomical Twilight 6:30 AM EST 7:14 PM EST
Moon 9:33 AM EST (1/3) 8:45 PM EST (1/3)
Length of Visible Light 10h 34m
Length of Day
9h 35m
Waxing Crescent, 8% of the Moon is Illuminated
Jan 3
Waxing Crescent
Jan 7
First Quarter
Jan 15
Full
Jan 24
Last Quarter
Jan 30
New

Hourly Weather History & Observations

Time (EST) Temp. Windchill Dew Point Humidity Pressure Visibility Wind Dir Wind Speed Gust Speed Precip Events Conditions
12:15 AM 15.8 °F 2.7 °F 10.4 °F 79% 30.38 in 10.0 mi NNW 11.5 mph - N/A   Clear
12:35 AM 15.8 °F 3.4 °F 10.4 °F 79% 30.39 in 10.0 mi NNW 10.4 mph - N/A   Clear
12:55 AM 15.8 °F 4.2 °F 10.4 °F 79% 30.41 in 10.0 mi NW 9.2 mph - N/A   Clear
1:15 AM 14.0 °F 3.9 °F 8.6 °F 79% 30.40 in 10.0 mi NNW 6.9 mph - N/A   Clear
1:35 AM 14.0 °F 2.9 °F 8.6 °F 79% 30.41 in 10.0 mi NNW 8.1 mph - N/A   Clear
1:55 AM 12.2 °F 2.9 °F 8.6 °F 85% 30.41 in 10.0 mi NNW 5.8 mph - N/A   Clear
2:15 AM 12.2 °F 2.9 °F 8.6 °F 85% 30.42 in 10.0 mi North 5.8 mph - N/A   Clear
2:35 AM 12.2 °F 4.3 °F 8.6 °F 85% 30.42 in 10.0 mi NNW 4.6 mph - N/A   Clear
2:55 AM 12.2 °F 2.9 °F 8.6 °F 85% 30.44 in 10.0 mi WNW 5.8 mph - N/A   Clear
3:15 AM 12.2 °F 0.7 °F 6.8 °F 79% 30.45 in 10.0 mi NW 8.1 mph - N/A   Clear
3:35 AM 12.2 °F 2.9 °F 6.8 °F 79% 30.46 in 10.0 mi NW 5.8 mph - N/A   Clear
3:55 AM 10.4 °F 2.2 °F 6.8 °F 85% 30.45 in 10.0 mi NNW 4.6 mph - N/A   Clear
4:15 AM 10.4 °F 2.2 °F 6.8 °F 85% 30.45 in 10.0 mi NNW 4.6 mph - N/A   Clear
4:35 AM 10.4 °F 2.2 °F 6.8 °F 85% 30.45 in 10.0 mi NNW 4.6 mph - N/A   Clear
4:55 AM 10.4 °F 0.8 °F 6.8 °F 85% 30.45 in 10.0 mi NW 5.8 mph - N/A   Clear
5:15 AM 10.4 °F - 6.8 °F 85% 30.45 in 10.0 mi Calm Calm - N/A   Clear
5:35 AM 10.4 °F - 6.8 °F 85% 30.46 in 10.0 mi Calm Calm - N/A   Clear
5:55 AM 10.4 °F 4.0 °F 6.8 °F 85% 30.46 in 10.0 mi NNW 3.5 mph - N/A   Clear
6:15 AM 10.4 °F - 6.8 °F 85% 30.47 in 10.0 mi Calm Calm - N/A   Clear
6:35 AM 10.4 °F 4.0 °F 6.8 °F 85% 30.47 in 10.0 mi NW 3.5 mph - N/A   Clear
6:55 AM 8.6 °F 0.1 °F 5.0 °F 85% 30.48 in 10.0 mi NW 4.6 mph - N/A   Clear
7:15 AM 8.6 °F 2.0 °F 3.2 °F 79% 30.48 in 10.0 mi NNE 3.5 mph - N/A   Clear
7:35 AM 8.6 °F 2.0 °F 5.0 °F 85% 30.48 in 10.0 mi North 3.5 mph - N/A   Clear
7:55 AM 8.6 °F - 3.2 °F 79% 30.49 in 10.0 mi Calm Calm - N/A   Clear
8:15 AM 8.6 °F - 5.0 °F 85% 30.50 in 10.0 mi Calm Calm - N/A   Clear
8:35 AM 8.6 °F 0.1 °F 6.8 °F 92% 30.51 in 10.0 mi West 4.6 mph - N/A   Clear
8:55 AM 10.4 °F 2.2 °F 6.8 °F 85% 30.52 in 10.0 mi WSW 4.6 mph - N/A   Clear
9:15 AM 10.4 °F - 6.8 °F 85% 30.52 in 10.0 mi Calm Calm - N/A   Clear
9:35 AM 12.2 °F - 8.6 °F 85% 30.53 in 10.0 mi Calm Calm - N/A   Clear
9:55 AM 12.2 °F - 8.6 °F 85% 30.54 in 10.0 mi Calm Calm - N/A   Clear
10:15 AM 12.2 °F - 8.6 °F 85% 30.54 in 10.0 mi Calm Calm - N/A   Clear
10:35 AM 14.0 °F - 10.4 °F 86% 30.54 in 10.0 mi Calm Calm - N/A   Clear
10:55 AM 15.8 °F 10.2 °F 10.4 °F 79% 30.54 in 10.0 mi SE 3.5 mph - N/A   Clear
11:15 AM 17.6 °F 10.7 °F 10.4 °F 73% 30.54 in 10.0 mi South 4.6 mph - N/A   Clear
11:35 AM 17.6 °F 8.2 °F 10.4 °F 73% 30.53 in 10.0 mi South 6.9 mph - N/A   Clear
11:55 AM 19.4 °F 10.4 °F 10.4 °F 68% 30.52 in 10.0 mi SSW 6.9 mph - N/A   Clear
12:15 PM 19.4 °F 10.4 °F 10.4 °F 68% 30.50 in 10.0 mi SE 6.9 mph - N/A   Clear
12:35 PM 21.2 °F 10.9 °F 10.4 °F 63% 30.48 in 10.0 mi South 9.2 mph - N/A   Clear
12:55 PM 21.2 °F 10.9 °F 10.4 °F 63% 30.47 in 10.0 mi SE 9.2 mph - N/A   Clear
1:15 PM 21.2 °F 11.7 °F 10.4 °F 63% 30.46 in 10.0 mi South 8.1 mph - N/A   Clear
1:35 PM 21.2 °F 10.9 °F 10.4 °F 63% 30.46 in 10.0 mi SW 9.2 mph - N/A   Clear
1:55 PM 23.0 °F 15.8 °F 10.4 °F 59% 30.45 in 10.0 mi South 5.8 mph - N/A   Clear
2:15 PM 23.0 °F 12.4 °F 10.4 °F 59% 30.44 in 10.0 mi South 10.4 mph - N/A   Clear
2:35 PM 24.8 °F 15.3 °F 10.4 °F 54% 30.42 in 10.0 mi South 9.2 mph - N/A   Clear
2:55 PM 24.8 °F 16.9 °F 10.4 °F 54% 30.42 in 10.0 mi SSE 6.9 mph - N/A   Clear
3:15 PM 24.8 °F 14.6 °F 10.4 °F 54% 30.41 in 10.0 mi South 10.4 mph - N/A   Clear
3:35 PM 24.8 °F 14.6 °F 12.2 °F 59% 30.41 in 10.0 mi South 10.4 mph - N/A   Clear
3:55 PM 24.8 °F 16.1 °F 10.4 °F 54% 30.40 in 10.0 mi SSE 8.1 mph - N/A   Clear
4:15 PM 24.8 °F 15.3 °F 10.4 °F 54% 30.40 in 10.0 mi South 9.2 mph - N/A   Clear
4:35 PM 24.8 °F 14.6 °F 10.4 °F 54% 30.38 in 10.0 mi SSE 10.4 mph - N/A   Clear
4:55 PM 24.8 °F 13.4 °F 10.4 °F 54% 30.37 in 10.0 mi South 12.7 mph 17.3 mph N/A   Clear
5:15 PM 24.8 °F 16.1 °F 10.4 °F 54% 30.36 in 10.0 mi SSE 8.1 mph 17.3 mph N/A   Clear
5:35 PM 23.0 °F 13.9 °F 10.4 °F 59% 30.36 in 10.0 mi South 8.1 mph - N/A   Clear
5:55 PM 23.0 °F 14.7 °F 10.4 °F 59% 30.35 in 10.0 mi SSE 6.9 mph - N/A   Clear
6:15 PM 21.2 °F 12.6 °F 10.4 °F 63% 30.35 in 10.0 mi SSE 6.9 mph - N/A   Clear
6:35 PM 21.2 °F 13.6 °F 10.4 °F 63% 30.36 in 10.0 mi SSE 5.8 mph - N/A   Clear
6:55 PM 21.2 °F 14.9 °F 10.4 °F 63% 30.36 in 10.0 mi SSE 4.6 mph - N/A   Clear
7:15 PM 21.2 °F 11.7 °F 10.4 °F 63% 30.35 in 10.0 mi SSE 8.1 mph - N/A   Clear
7:35 PM 21.2 °F 11.7 °F 10.4 °F 63% 30.34 in 10.0 mi SSE 8.1 mph - N/A   Clear
7:55 PM 21.2 °F 11.7 °F 10.4 °F 63% 30.34 in 10.0 mi SSE 8.1 mph - N/A   Clear
8:15 PM 21.2 °F 10.9 °F 10.4 °F 63% 30.32 in 10.0 mi SSE 9.2 mph - N/A   Clear
8:35 PM 21.2 °F 10.1 °F 10.4 °F 63% 30.31 in 10.0 mi South 10.4 mph - N/A   Clear
8:55 PM 21.2 °F 10.9 °F 10.4 °F 63% 30.30 in 10.0 mi South 9.2 mph - N/A   Clear
9:15 PM 21.2 °F 9.5 °F 10.4 °F 63% 30.29 in 10.0 mi South 11.5 mph 16.1 mph N/A   Clear
9:35 PM 21.2 °F 10.1 °F 10.4 °F 63% 30.28 in 10.0 mi South 10.4 mph 16.1 mph N/A   Clear
9:55 PM 21.2 °F 8.3 °F 10.4 °F 63% 30.27 in 10.0 mi South 13.8 mph 19.6 mph N/A   Clear
10:15 PM 21.2 °F 10.9 °F 10.4 °F 63% 30.26 in 10.0 mi South 9.2 mph 16.1 mph N/A   Clear
10:35 PM 21.2 °F 9.5 °F 10.4 °F 63% 30.25 in 10.0 mi South 11.5 mph - N/A   Clear
10:55 PM 21.2 °F 9.5 °F 10.4 °F 63% 30.24 in 10.0 mi South 11.5 mph - N/A   Clear
11:15 PM 21.2 °F 10.9 °F 10.4 °F 63% 30.24 in 10.0 mi South 9.2 mph - N/A   Clear
11:35 PM 21.2 °F 10.9 °F 10.4 °F 63% 30.23 in 10.0 mi South 9.2 mph - N/A   Clear
11:55 PM 21.2 °F 10.1 °F 10.4 °F 63% 30.23 in 10.0 mi South 10.4 mph - N/A   Clear